sensor_id;sensor_type;location;lat;lon;timestamp;pressure;altitude;pressure_sealevel;temperature;humidity
62926;BME280;55732;52.248;-0.844;2023-07-13T00:01:50;100470.13;;;15.53;77.18
62926;BME280;55732;52.248;-0.844;2023-07-13T00:04:18;100469.98;;;15.51;77.24
62926;BME280;55732;52.248;-0.844;2023-07-13T00:06:45;100475.18;;;15.48;77.23
62926;BME280;55732;52.248;-0.844;2023-07-13T00:09:15;100471.91;;;15.44;77.30
62926;BME280;55732;52.248;-0.844;2023-07-13T00:11:42;100470.39;;;15.41;77.30
62926;BME280;55732;52.248;-0.844;2023-07-13T00:14:08;100471.88;;;15.38;77.33
62926;BME280;55732;52.248;-0.844;2023-07-13T00:16:35;100469.44;;;15.36;77.34
62926;BME280;55732;52.248;-0.844;2023-07-13T00:19:01;100471.29;;;15.34;77.21
62926;BME280;55732;52.248;-0.844;2023-07-13T00:21:27;100468.17;;;15.30;77.28
62926;BME280;55732;52.248;-0.844;2023-07-13T00:23:53;100469.98;;;15.27;77.35
62926;BME280;55732;52.248;-0.844;2023-07-13T00:26:18;100470.04;;;15.25;77.29
62926;BME280;55732;52.248;-0.844;2023-07-13T00:28:44;100469.05;;;15.22;77.29
62926;BME280;55732;52.248;-0.844;2023-07-13T00:31:11;100474.41;;;15.21;77.46
62926;BME280;55732;52.248;-0.844;2023-07-13T00:33:37;100473.89;;;15.20;77.64
62926;BME280;55732;52.248;-0.844;2023-07-13T00:36:02;100473.19;;;15.19;77.97
62926;BME280;55732;52.248;-0.844;2023-07-13T00:38:28;100476.05;;;15.18;77.74
62926;BME280;55732;52.248;-0.844;2023-07-13T00:40:54;100480.89;;;15.15;77.55
62926;BME280;55732;52.248;-0.844;2023-07-13T00:43:21;100477.38;;;15.14;77.63
62926;BME280;55732;52.248;-0.844;2023-07-13T00:48:21;100474.60;;;15.11;78.07
62926;BME280;55732;52.248;-0.844;2023-07-13T00:50:49;100475.90;;;15.09;77.95
62926;BME280;55732;52.248;-0.844;2023-07-13T00:53:17;100474.70;;;15.06;77.99
62926;BME280;55732;52.248;-0.844;2023-07-13T00:55:43;100479.19;;;15.04;78.19
62926;BME280;55732;52.248;-0.844;2023-07-13T00:58:10;100482.77;;;15.02;78.19
62926;BME280;55732;52.248;-0.844;2023-07-13T01:00:36;100481.94;;;15.00;78.32
62926;BME280;55732;52.248;-0.844;2023-07-13T01:03:04;100477.59;;;14.96;78.40
62926;BME280;55732;52.248;-0.844;2023-07-13T01:05:32;100473.92;;;14.93;78.49
62926;BME280;55732;52.248;-0.844;2023-07-13T01:07:59;100475.91;;;14.92;78.61
62926;BME280;55732;52.248;-0.844;2023-07-13T01:10:26;100483.41;;;14.89;78.55
62926;BME280;55732;52.248;-0.844;2023-07-13T01:12:52;100489.59;;;14.82;78.32
62926;BME280;55732;52.248;-0.844;2023-07-13T01:15:41;100490.05;;;14.75;78.77
62926;BME280;55732;52.248;-0.844;2023-07-13T01:18:15;100490.54;;;14.69;78.89
62926;BME280;55732;52.248;-0.844;2023-07-13T01:20:52;100481.67;;;14.60;79.01
62926;BME280;55732;52.248;-0.844;2023-07-13T01:23:18;100489.15;;;14.59;79.20
62926;BME280;55732;52.248;-0.844;2023-07-13T01:25:44;100494.85;;;14.57;79.17
62926;BME280;55732;52.248;-0.844;2023-07-13T01:28:09;100491.76;;;14.52;79.21
62926;BME280;55732;52.248;-0.844;2023-07-13T01:30:36;100493.23;;;14.50;79.47
62926;BME280;55732;52.248;-0.844;2023-07-13T01:33:03;100490.93;;;14.50;79.57
62926;BME280;55732;52.248;-0.844;2023-07-13T01:35:29;100494.11;;;14.50;79.69
62926;BME280;55732;52.248;-0.844;2023-07-13T01:37:54;100495.89;;;14.50;79.70
62926;BME280;55732;52.248;-0.844;2023-07-13T01:40:21;100494.68;;;14.48;79.65
62926;BME280;55732;52.248;-0.844;2023-07-13T01:42:47;100489.75;;;14.46;79.72
62926;BME280;55732;52.248;-0.844;2023-07-13T01:45:12;100488.56;;;14.43;79.66
62926;BME280;55732;52.248;-0.844;2023-07-13T01:47:37;100488.62;;;14.39;79.61
62926;BME280;55732;52.248;-0.844;2023-07-13T01:50:03;100489.02;;;14.35;79.89
62926;BME280;55732;52.248;-0.844;2023-07-13T01:52:29;100484.80;;;14.33;80.15
62926;BME280;55732;52.248;-0.844;2023-07-13T01:54:54;100484.83;;;14.32;80.13
62926;BME280;55732;52.248;-0.844;2023-07-13T01:57:20;100479.55;;;14.30;79.98
62926;BME280;55732;52.248;-0.844;2023-07-13T01:59:45;100480.98;;;14.29;80.13
62926;BME280;55732;52.248;-0.844;2023-07-13T02:02:11;100483.27;;;14.29;80.30
62926;BME280;55732;52.248;-0.844;2023-07-13T02:04:36;100477.26;;;14.29;80.34
62926;BME280;55732;52.248;-0.844;2023-07-13T02:07:02;100478.33;;;14.29;80.33
62926;BME280;55732;52.248;-0.844;2023-07-13T02:09:27;100474.79;;;14.29;80.56
62926;BME280;55732;52.248;-0.844;2023-07-13T02:11:53;100475.65;;;14.30;80.82
62926;BME280;55732;52.248;-0.844;2023-07-13T02:14:18;100476.71;;;14.30;80.66
62926;BME280;55732;52.248;-0.844;2023-07-13T02:16:44;100470.67;;;14.31;80.81
62926;BME280;55732;52.248;-0.844;2023-07-13T02:19:09;100465.85;;;14.33;80.96
62926;BME280;55732;52.248;-0.844;2023-07-13T02:21:35;100467.07;;;14.34;80.78
62926;BME280;55732;52.248;-0.844;2023-07-13T02:24:00;100471.69;;;14.34;80.91
62926;BME280;55732;52.248;-0.844;2023-07-13T02:26:26;100478.10;;;14.32;80.85
62926;BME280;55732;52.248;-0.844;2023-07-13T02:28:52;100479.20;;;14.29;80.79
62926;BME280;55732;52.248;-0.844;2023-07-13T02:31:17;100474.08;;;14.29;81.16
62926;BME280;55732;52.248;-0.844;2023-07-13T02:33:43;100460.14;;;14.25;81.32
62926;BME280;55732;52.248;-0.844;2023-07-13T02:36:09;100469.08;;;14.31;81.32
62926;BME280;55732;52.248;-0.844;2023-07-13T02:38:35;100469.98;;;14.31;81.22
62926;BME280;55732;52.248;-0.844;2023-07-13T02:41:05;100463.66;;;14.27;81.34
62926;BME280;55732;52.248;-0.844;2023-07-13T02:43:31;100471.20;;;14.32;81.39
62926;BME280;55732;52.248;-0.844;2023-07-13T02:45:56;100472.23;;;14.33;81.37
62926;BME280;55732;52.248;-0.844;2023-07-13T02:48:25;100466.84;;;14.28;81.29
62926;BME280;55732;52.248;-0.844;2023-07-13T02:50:51;100459.77;;;14.26;81.40
62926;BME280;55732;52.248;-0.844;2023-07-13T02:53:16;100472.29;;;14.30;81.31
62926;BME280;55732;52.248;-0.844;2023-07-13T02:55:42;100473.54;;;14.29;81.38
62926;BME280;55732;52.248;-0.844;2023-07-13T02:58:12;100471.09;;;14.28;81.37
62926;BME280;55732;52.248;-0.844;2023-07-13T03:00:42;100467.48;;;14.22;81.35
62926;BME280;55732;52.248;-0.844;2023-07-13T03:03:08;100470.66;;;14.22;81.41
62926;BME280;55732;52.248;-0.844;2023-07-13T03:05:34;100472.45;;;14.21;81.62
62926;BME280;55732;52.248;-0.844;2023-07-13T03:07:59;100463.17;;;14.15;81.65
62926;BME280;55732;52.248;-0.844;2023-07-13T03:10:24;100468.95;;;14.18;81.53
62926;BME280;55732;52.248;-0.844;2023-07-13T03:12:50;100471.30;;;14.16;81.59
62926;BME280;55732;52.248;-0.844;2023-07-13T03:15:16;100470.44;;;14.16;81.74
62926;BME280;55732;52.248;-0.844;2023-07-13T03:17:41;100461.46;;;14.12;81.77
62926;BME280;55732;52.248;-0.844;2023-07-13T03:20:07;100464.05;;;14.16;82.06
62926;BME280;55732;52.248;-0.844;2023-07-13T03:22:33;100465.48;;;14.15;82.01
62926;BME280;55732;52.248;-0.844;2023-07-13T03:24:58;100465.14;;;14.15;82.22
62926;BME280;55732;52.248;-0.844;2023-07-13T03:27:24;100461.58;;;14.16;82.15
62926;BME280;55732;52.248;-0.844;2023-07-13T03:29:49;100460.60;;;14.11;81.98
62926;BME280;55732;52.248;-0.844;2023-07-13T03:32:15;100466.80;;;14.10;82.04
62926;BME280;55732;52.248;-0.844;2023-07-13T03:34:40;100465.58;;;14.09;82.41
62926;BME280;55732;52.248;-0.844;2023-07-13T03:37:05;100463.09;;;14.10;82.52
62926;BME280;55732;52.248;-0.844;2023-07-13T03:39:31;100463.79;;;14.10;82.71
62926;BME280;55732;52.248;-0.844;2023-07-13T03:41:56;100459.71;;;14.10;82.80
62926;BME280;55732;52.248;-0.844;2023-07-13T03:44:22;100461.30;;;14.11;82.94
62926;BME280;55732;52.248;-0.844;2023-07-13T03:46:47;100466.93;;;14.14;83.11
62926;BME280;55732;52.248;-0.844;2023-07-13T03:49:13;100464.97;;;14.15;83.05
62926;BME280;55732;52.248;-0.844;2023-07-13T03:51:38;100468.15;;;14.15;82.97
62926;BME280;55732;52.248;-0.844;2023-07-13T03:54:04;100468.85;;;14.15;82.95
62926;BME280;55732;52.248;-0.844;2023-07-13T03:56:30;100460.68;;;14.07;82.85
62926;BME280;55732;52.248;-0.844;2023-07-13T03:58:56;100462.46;;;14.06;82.87
62926;BME280;55732;52.248;-0.844;2023-07-13T04:01:23;100478.45;;;14.13;82.88
62926;BME280;55732;52.248;-0.844;2023-07-13T04:03:50;100480.23;;;14.12;83.17
62926;BME280;55732;52.248;-0.844;2023-07-13T04:06:26;100479.35;;;14.12;82.99
62926;BME280;55732;52.248;-0.844;2023-07-13T04:08:56;100488.22;;;14.11;82.90
62926;BME280;55732;52.248;-0.844;2023-07-13T04:11:24;100488.58;;;14.10;83.06
62926;BME280;55732;52.248;-0.844;2023-07-13T04:13:50;100485.40;;;14.10;83.27
62926;BME280;55732;52.248;-0.844;2023-07-13T04:16:17;100487.68;;;14.11;83.25
62926;BME280;55732;52.248;-0.844;2023-07-13T04:18:44;100483.80;;;14.10;83.33
62926;BME280;55732;52.248;-0.844;2023-07-13T04:21:09;100485.90;;;14.12;83.41
62926;BME280;55732;52.248;-0.844;2023-07-13T04:23:37;100495.98;;;14.13;83.43
62926;BME280;55732;52.248;-0.844;2023-07-13T04:26:04;100497.55;;;14.15;83.58
62926;BME280;55732;52.248;-0.844;2023-07-13T04:28:29;100496.09;;;14.16;83.74
62926;BME280;55732;52.248;-0.844;2023-07-13T04:30:55;100492.14;;;14.19;83.74
62926;BME280;55732;52.248;-0.844;2023-07-13T04:33:22;100493.16;;;14.21;83.78
62926;BME280;55732;52.248;-0.844;2023-07-13T04:35:49;100495.43;;;14.24;83.76
62926;BME280;55732;52.248;-0.844;2023-07-13T04:38:15;100496.08;;;14.28;83.78
62926;BME280;55732;52.248;-0.844;2023-07-13T04:40:44;100497.98;;;14.40;83.70
62926;BME280;55732;52.248;-0.844;2023-07-13T04:43:10;100501.66;;;14.53;83.49
62926;BME280;55732;52.248;-0.844;2023-07-13T04:45:36;100501.98;;;14.90;83.07
62926;BME280;55732;52.248;-0.844;2023-07-13T04:48:01;100495.64;;;16.05;81.18
62926;BME280;55732;52.248;-0.844;2023-07-13T04:50:27;100491.75;;;17.22;78.80
62926;BME280;55732;52.248;-0.844;2023-07-13T04:52:52;100491.75;;;17.87;76.71
62926;BME280;55732;52.248;-0.844;2023-07-13T04:55:19;100494.59;;;18.13;75.64
62926;BME280;55732;52.248;-0.844;2023-07-13T04:57:45;100495.77;;;18.91;73.85
62926;BME280;55732;52.248;-0.844;2023-07-13T05:00:11;100494.04;;;19.83;71.76
62926;BME280;55732;52.248;-0.844;2023-07-13T05:02:38;100495.77;;;20.14;70.37
62926;BME280;55732;52.248;-0.844;2023-07-13T05:05:05;100498.05;;;20.24;69.23
62926;BME280;55732;52.248;-0.844;2023-07-13T05:07:31;100498.20;;;20.11;68.78
62926;BME280;55732;52.248;-0.844;2023-07-13T05:09:59;100499.10;;;19.90;68.99
62926;BME280;55732;52.248;-0.844;2023-07-13T05:12:25;100502.80;;;19.74;68.93
62926;BME280;55732;52.248;-0.844;2023-07-13T05:14:50;100503.27;;;19.57;68.76
62926;BME280;55732;52.248;-0.844;2023-07-13T05:17:16;100505.81;;;19.47;68.67
62926;BME280;55732;52.248;-0.844;2023-07-13T05:19:41;100512.17;;;19.49;68.73
62926;BME280;55732;52.248;-0.844;2023-07-13T05:22:07;100510.09;;;19.61;68.19
62926;BME280;55732;52.248;-0.844;2023-07-13T05:24:32;100507.05;;;19.79;67.88
62926;BME280;55732;52.248;-0.844;2023-07-13T05:26:57;100521.60;;;19.86;67.35
62926;BME280;55732;52.248;-0.844;2023-07-13T05:29:23;100526.29;;;19.63;67.24
62926;BME280;55732;52.248;-0.844;2023-07-13T05:31:49;100527.13;;;19.41;67.72
62926;BME280;55732;52.248;-0.844;2023-07-13T05:34:14;100527.86;;;19.21;67.95
62926;BME280;55732;52.248;-0.844;2023-07-13T05:36:40;100531.95;;;19.07;68.05
62926;BME280;55732;52.248;-0.844;2023-07-13T05:39:06;100532.52;;;19.49;67.67
62926;BME280;55732;52.248;-0.844;2023-07-13T05:41:31;100533.89;;;19.87;66.86
62926;BME280;55732;52.248;-0.844;2023-07-13T05:43:57;100538.17;;;19.87;67.03
62926;BME280;55732;52.248;-0.844;2023-07-13T05:46:22;100539.77;;;19.92;67.06
62926;BME280;55732;52.248;-0.844;2023-07-13T05:48:47;100544.01;;;20.49;66.21
62926;BME280;55732;52.248;-0.844;2023-07-13T05:51:13;100544.09;;;21.29;64.46
62926;BME280;55732;52.248;-0.844;2023-07-13T05:53:39;100545.34;;;21.55;63.48
62926;BME280;55732;52.248;-0.844;2023-07-13T05:56:04;100550.14;;;21.71;62.78
62926;BME280;55732;52.248;-0.844;2023-07-13T05:58:30;100548.50;;;21.87;62.08
62926;BME280;55732;52.248;-0.844;2023-07-13T06:01:01;100549.23;;;21.90;61.92
62926;BME280;55732;52.248;-0.844;2023-07-13T06:03:27;100554.80;;;21.71;62.08
62926;BME280;55732;52.248;-0.844;2023-07-13T06:05:52;100558.70;;;21.49;62.11
62926;BME280;55732;52.248;-0.844;2023-07-13T06:08:18;100560.62;;;21.28;62.36
62926;BME280;55732;52.248;-0.844;2023-07-13T06:10:43;100565.06;;;21.08;62.56
62926;BME280;55732;52.248;-0.844;2023-07-13T06:13:09;100563.92;;;20.94;62.94
62926;BME280;55732;52.248;-0.844;2023-07-13T06:15:34;100565.09;;;20.79;63.19
62926;BME280;55732;52.248;-0.844;2023-07-13T06:18:00;100568.46;;;20.83;63.19
62926;BME280;55732;52.248;-0.844;2023-07-13T06:20:25;100568.95;;;21.41;62.41
62926;BME280;55732;52.248;-0.844;2023-07-13T06:22:50;100570.79;;;21.74;61.88
62926;BME280;55732;52.248;-0.844;2023-07-13T06:25:16;100567.95;;;21.92;61.17
62926;BME280;55732;52.248;-0.844;2023-07-13T06:27:42;100574.38;;;22.01;60.99
62926;BME280;55732;52.248;-0.844;2023-07-13T06:30:08;100580.22;;;21.91;60.87
62926;BME280;55732;52.248;-0.844;2023-07-13T06:32:34;100584.25;;;21.78;60.83
62926;BME280;55732;52.248;-0.844;2023-07-13T06:34:59;100585.79;;;21.60;60.99
62926;BME280;55732;52.248;-0.844;2023-07-13T06:37:25;100589.73;;;21.37;61.35
62926;BME280;55732;52.248;-0.844;2023-07-13T06:39:50;100594.59;;;21.12;61.71
62926;BME280;55732;52.248;-0.844;2023-07-13T06:42:16;100595.27;;;20.81;62.06
62926;BME280;55732;52.248;-0.844;2023-07-13T06:44:42;100597.31;;;20.54;62.79
62926;BME280;55732;52.248;-0.844;2023-07-13T06:47:07;100594.25;;;20.33;63.04
62926;BME280;55732;52.248;-0.844;2023-07-13T06:49:33;100594.40;;;20.29;63.26
62926;BME280;55732;52.248;-0.844;2023-07-13T06:51:58;100596.77;;;20.41;63.40
62926;BME280;55732;52.248;-0.844;2023-07-13T06:54:24;100594.78;;;20.71;63.40
62926;BME280;55732;52.248;-0.844;2023-07-13T06:56:50;100592.86;;;20.82;63.01
62926;BME280;55732;52.248;-0.844;2023-07-13T06:59:15;100595.09;;;20.89;62.63
62926;BME280;55732;52.248;-0.844;2023-07-13T07:01:40;100596.41;;;21.04;62.30
62926;BME280;55732;52.248;-0.844;2023-07-13T07:04:06;100599.79;;;21.20;62.05
62926;BME280;55732;52.248;-0.844;2023-07-13T07:06:31;100601.38;;;21.37;61.62
62926;BME280;55732;52.248;-0.844;2023-07-13T07:08:57;100607.01;;;21.55;61.40
62926;BME280;55732;52.248;-0.844;2023-07-13T07:11:24;100609.80;;;21.60;60.93
62926;BME280;55732;52.248;-0.844;2023-07-13T07:13:51;100605.20;;;21.67;60.88
62926;BME280;55732;52.248;-0.844;2023-07-13T07:16:17;100607.02;;;21.78;60.77
62926;BME280;55732;52.248;-0.844;2023-07-13T07:18:43;100600.42;;;21.92;60.47
62926;BME280;55732;52.248;-0.844;2023-07-13T07:21:08;100602.23;;;22.07;60.54
62926;BME280;55732;52.248;-0.844;2023-07-13T07:23:34;100606.55;;;22.18;60.22
62926;BME280;55732;52.248;-0.844;2023-07-13T07:25:59;100609.14;;;22.38;59.55
62926;BME280;55732;52.248;-0.844;2023-07-13T07:28:24;100607.92;;;22.59;58.85
62926;BME280;55732;52.248;-0.844;2023-07-13T07:30:53;100611.80;;;22.92;58.22
62926;BME280;55732;52.248;-0.844;2023-07-13T07:33:20;100614.23;;;23.28;57.48
62926;BME280;55732;52.248;-0.844;2023-07-13T07:35:45;100615.80;;;23.59;56.48
62926;BME280;55732;52.248;-0.844;2023-07-13T07:38:10;100617.79;;;23.61;56.15
62926;BME280;55732;52.248;-0.844;2023-07-13T07:40:38;100615.95;;;23.76;55.93
62926;BME280;55732;52.248;-0.844;2023-07-13T07:43:03;100614.64;;;24.02;55.38
62926;BME280;55732;52.248;-0.844;2023-07-13T07:45:29;100618.42;;;24.08;54.32
62926;BME280;55732;52.248;-0.844;2023-07-13T07:47:54;100615.66;;;24.03;54.61
62926;BME280;55732;52.248;-0.844;2023-07-13T07:50:24;100619.02;;;23.95;54.49
62926;BME280;55732;52.248;-0.844;2023-07-13T07:52:50;100613.92;;;23.80;54.29
62926;BME280;55732;52.248;-0.844;2023-07-13T07:55:15;100627.89;;;23.71;54.66
62926;BME280;55732;52.248;-0.844;2023-07-13T07:57:41;100629.91;;;23.67;55.18
62926;BME280;55732;52.248;-0.844;2023-07-13T08:00:07;100626.10;;;23.87;54.55
62926;BME280;55732;52.248;-0.844;2023-07-13T08:02:33;100628.79;;;24.23;53.90
62926;BME280;55732;52.248;-0.844;2023-07-13T08:04:58;100623.45;;;24.28;53.75
62926;BME280;55732;52.248;-0.844;2023-07-13T08:07:23;100633.39;;;24.33;53.10
62926;BME280;55732;52.248;-0.844;2023-07-13T08:09:52;100631.16;;;24.35;52.77
62926;BME280;55732;52.248;-0.844;2023-07-13T08:12:17;100631.48;;;24.63;52.10
62926;BME280;55732;52.248;-0.844;2023-07-13T08:14:43;100637.13;;;25.14;51.16
62926;BME280;55732;52.248;-0.844;2023-07-13T08:17:08;100634.15;;;25.85;50.38
62926;BME280;55732;52.248;-0.844;2023-07-13T08:19:34;100633.05;;;26.13;49.54
62926;BME280;55732;52.248;-0.844;2023-07-13T08:21:59;100632.69;;;26.43;48.81
62926;BME280;55732;52.248;-0.844;2023-07-13T08:24:24;100627.20;;;26.50;48.15
62926;BME280;55732;52.248;-0.844;2023-07-13T08:26:51;100631.27;;;26.59;47.44
62926;BME280;55732;52.248;-0.844;2023-07-13T08:29:16;100636.06;;;26.92;46.65
62926;BME280;55732;52.248;-0.844;2023-07-13T08:31:41;100635.44;;;27.86;45.49
62926;BME280;55732;52.248;-0.844;2023-07-13T08:34:07;100627.66;;;28.38;44.34
62926;BME280;55732;52.248;-0.844;2023-07-13T08:36:32;100629.16;;;28.99;43.07
62926;BME280;55732;52.248;-0.844;2023-07-13T08:38:57;100630.94;;;28.69;43.23
62926;BME280;55732;52.248;-0.844;2023-07-13T08:41:23;100634.13;;;28.09;44.02
62926;BME280;55732;52.248;-0.844;2023-07-13T08:43:51;100635.70;;;27.42;43.87
62926;BME280;55732;52.248;-0.844;2023-07-13T08:46:33;100638.00;;;26.99;44.49
62926;BME280;55732;52.248;-0.844;2023-07-13T08:49:09;100632.18;;;26.43;45.00
62926;BME280;55732;52.248;-0.844;2023-07-13T08:51:51;100636.89;;;25.92;45.92
62926;BME280;55732;52.248;-0.844;2023-07-13T08:54:22;100634.48;;;25.59;46.34
62926;BME280;55732;52.248;-0.844;2023-07-13T08:56:52;100633.76;;;25.60;46.63
62926;BME280;55732;52.248;-0.844;2023-07-13T08:59:22;100640.05;;;25.54;46.68
62926;BME280;55732;52.248;-0.844;2023-07-13T09:02:02;100636.68;;;25.76;46.69
62926;BME280;55732;52.248;-0.844;2023-07-13T09:04:42;100638.89;;;26.15;45.95
62926;BME280;55732;52.248;-0.844;2023-07-13T09:07:17;100638.81;;;26.49;45.15
62926;BME280;55732;52.248;-0.844;2023-07-13T09:09:55;100641.71;;;27.69;43.77
62926;BME280;55732;52.248;-0.844;2023-07-13T09:14:56;100639.89;;;26.54;44.58
62926;BME280;55732;52.248;-0.844;2023-07-13T09:17:30;100640.08;;;27.15;44.00
62926;BME280;55732;52.248;-0.844;2023-07-13T09:20:09;100636.10;;;28.66;42.15
62926;BME280;55732;52.248;-0.844;2023-07-13T09:22:37;100637.20;;;30.69;38.86
62926;BME280;55732;52.248;-0.844;2023-07-13T09:27:53;100631.95;;;32.58;35.95
62926;BME280;55732;52.248;-0.844;2023-07-13T09:30:30;100633.59;;;32.26;35.67
62926;BME280;55732;52.248;-0.844;2023-07-13T09:32:57;100635.84;;;31.13;36.81
62926;BME280;55732;52.248;-0.844;2023-07-13T09:35:28;100631.73;;;30.30;37.65
62926;BME280;55732;52.248;-0.844;2023-07-13T09:38:03;100633.41;;;31.26;36.77
62926;BME280;55732;52.248;-0.844;2023-07-13T09:43:24;100641.02;;;31.22;36.62
62926;BME280;55732;52.248;-0.844;2023-07-13T09:45:50;100639.38;;;30.50;37.33
62926;BME280;55732;52.248;-0.844;2023-07-13T09:48:17;100641.50;;;29.66;38.63
62926;BME280;55732;52.248;-0.844;2023-07-13T09:50:43;100638.66;;;29.66;38.03
62926;BME280;55732;52.248;-0.844;2023-07-13T09:53:14;100642.45;;;29.88;37.64
62926;BME280;55732;52.248;-0.844;2023-07-13T09:55:42;100646.15;;;29.39;37.97
62926;BME280;55732;52.248;-0.844;2023-07-13T09:58:14;100650.10;;;28.77;38.81
62926;BME280;55732;52.248;-0.844;2023-07-13T10:00:41;100652.11;;;28.01;40.14
62926;BME280;55732;52.248;-0.844;2023-07-13T10:03:18;100660.35;;;27.46;40.99
62926;BME280;55732;52.248;-0.844;2023-07-13T10:05:46;100656.95;;;27.20;41.47
62926;BME280;55732;52.248;-0.844;2023-07-13T10:10:45;100640.23;;;27.03;42.13
62926;BME280;55732;52.248;-0.844;2023-07-13T10:13:29;100648.88;;;26.58;43.09
62926;BME280;55732;52.248;-0.844;2023-07-13T10:15:55;100650.03;;;26.54;43.62
62926;BME280;55732;52.248;-0.844;2023-07-13T10:18:23;100646.34;;;26.69;43.69
62926;BME280;55732;52.248;-0.844;2023-07-13T10:20:54;100649.17;;;26.64;43.23
62926;BME280;55732;52.248;-0.844;2023-07-13T10:23:27;100645.42;;;26.42;43.14
62926;BME280;55732;52.248;-0.844;2023-07-13T10:25:56;100644.50;;;26.29;42.93
62926;BME280;55732;52.248;-0.844;2023-07-13T10:28:33;100650.65;;;26.37;43.06
62926;BME280;55732;52.248;-0.844;2023-07-13T10:31:02;100652.19;;;26.24;43.34
62926;BME280;55732;52.248;-0.844;2023-07-13T10:33:27;100655.06;;;26.13;43.71
62926;BME280;55732;52.248;-0.844;2023-07-13T10:36:01;100656.83;;;26.06;43.82
62926;BME280;55732;52.248;-0.844;2023-07-13T10:38:28;100658.96;;;25.89;43.89
62926;BME280;55732;52.248;-0.844;2023-07-13T10:43:43;100651.41;;;25.77;43.36
62926;BME280;55732;52.248;-0.844;2023-07-13T10:46:14;100654.08;;;25.63;43.67
62926;BME280;55732;52.248;-0.844;2023-07-13T10:48:43;100653.45;;;25.62;43.72
62926;BME280;55732;52.248;-0.844;2023-07-13T10:51:10;100651.91;;;25.61;43.48
62926;BME280;55732;52.248;-0.844;2023-07-13T10:53:38;100652.73;;;25.50;43.61
62926;BME280;55732;52.248;-0.844;2023-07-13T10:56:28;100648.71;;;25.28;43.70
62926;BME280;55732;52.248;-0.844;2023-07-13T10:59:15;100650.70;;;25.06;43.79
62926;BME280;55732;52.248;-0.844;2023-07-13T11:04:42;100652.00;;;24.63;44.60
62926;BME280;55732;52.248;-0.844;2023-07-13T11:07:21;100651.45;;;24.48;45.22
62926;BME280;55732;52.248;-0.844;2023-07-13T11:09:53;100650.10;;;24.37;45.64
62926;BME280;55732;52.248;-0.844;2023-07-13T11:22:46;100656.12;;;24.55;47.16
62926;BME280;55732;52.248;-0.844;2023-07-13T11:25:28;100652.49;;;24.55;47.27
62926;BME280;55732;52.248;-0.844;2023-07-13T11:30:48;100655.06;;;24.38;47.68
62926;BME280;55732;52.248;-0.844;2023-07-13T11:36:12;100664.58;;;24.00;49.03
62926;BME280;55732;52.248;-0.844;2023-07-13T11:38:40;100668.20;;;23.81;49.23
62926;BME280;55732;52.248;-0.844;2023-07-13T11:41:23;100667.95;;;23.65;49.49
62926;BME280;55732;52.248;-0.844;2023-07-13T11:44:01;100668.44;;;23.46;49.22
62926;BME280;55732;52.248;-0.844;2023-07-13T11:46:28;100665.81;;;23.31;49.32
62926;BME280;55732;52.248;-0.844;2023-07-13T11:48:53;100663.58;;;23.29;49.66
62926;BME280;55732;52.248;-0.844;2023-07-13T11:51:31;100663.70;;;23.30;49.80
62926;BME280;55732;52.248;-0.844;2023-07-13T11:54:03;100651.73;;;23.29;49.71
62926;BME280;55732;52.248;-0.844;2023-07-13T11:56:29;100661.64;;;23.72;49.50
62926;BME280;55732;52.248;-0.844;2023-07-13T11:58:56;100655.64;;;24.12;48.89
62926;BME280;55732;52.248;-0.844;2023-07-13T12:01:30;100648.25;;;24.47;48.68
62926;BME280;55732;52.248;-0.844;2023-07-13T12:03:59;100643.38;;;24.78;47.84
62926;BME280;55732;52.248;-0.844;2023-07-13T12:06:28;100645.36;;;25.08;46.57
62926;BME280;55732;52.248;-0.844;2023-07-13T12:08:59;100643.73;;;25.30;46.08
62926;BME280;55732;52.248;-0.844;2023-07-13T12:11:24;100644.03;;;25.39;44.94
62926;BME280;55732;52.248;-0.844;2023-07-13T12:13:50;100641.28;;;25.48;44.72
62926;BME280;55732;52.248;-0.844;2023-07-13T12:18:48;100639.30;;;25.57;44.60
62926;BME280;55732;52.248;-0.844;2023-07-13T12:21:17;100634.84;;;25.71;44.81
62926;BME280;55732;52.248;-0.844;2023-07-13T12:23:44;100630.29;;;25.97;44.91
62926;BME280;55732;52.248;-0.844;2023-07-13T12:26:12;100626.86;;;26.14;44.85
62926;BME280;55732;52.248;-0.844;2023-07-13T12:28:55;100628.88;;;26.28;45.55
62926;BME280;55732;52.248;-0.844;2023-07-13T12:31:36;100623.71;;;26.37;45.11
62926;BME280;55732;52.248;-0.844;2023-07-13T12:34:07;100625.49;;;26.43;44.67
62926;BME280;55732;52.248;-0.844;2023-07-13T12:36:36;100623.46;;;26.49;43.51
62926;BME280;55732;52.248;-0.844;2023-07-13T12:39:18;100622.20;;;26.49;43.42
62926;BME280;55732;52.248;-0.844;2023-07-13T12:41:44;100621.55;;;26.48;44.34
62926;BME280;55732;52.248;-0.844;2023-07-13T12:44:31;100625.13;;;26.51;44.78
62926;BME280;55732;52.248;-0.844;2023-07-13T12:47:03;100620.13;;;26.48;44.56
62926;BME280;55732;52.248;-0.844;2023-07-13T12:49:31;100613.30;;;26.34;44.24
62926;BME280;55732;52.248;-0.844;2023-07-13T12:52:02;100609.92;;;26.38;44.39
62926;BME280;55732;52.248;-0.844;2023-07-13T12:54:28;100603.90;;;26.45;44.57
62926;BME280;55732;52.248;-0.844;2023-07-13T12:56:55;100607.85;;;26.53;44.02
62926;BME280;55732;52.248;-0.844;2023-07-13T12:59:25;100606.01;;;26.62;43.17
62926;BME280;55732;52.248;-0.844;2023-07-13T13:01:53;100611.48;;;26.58;42.24
62926;BME280;55732;52.248;-0.844;2023-07-13T13:04:19;100614.17;;;26.47;41.80
62926;BME280;55732;52.248;-0.844;2023-07-13T13:06:47;100609.24;;;26.38;41.56
62926;BME280;55732;52.248;-0.844;2023-07-13T13:09:14;100609.20;;;26.16;42.12
62926;BME280;55732;52.248;-0.844;2023-07-13T13:11:40;100608.76;;;25.92;42.92
62926;BME280;55732;52.248;-0.844;2023-07-13T13:14:06;100617.23;;;25.78;43.24
62926;BME280;55732;52.248;-0.844;2023-07-13T13:19:14;100638.38;;;24.90;45.14
62926;BME280;55732;52.248;-0.844;2023-07-13T13:21:42;100646.09;;;24.15;46.88
62926;BME280;55732;52.248;-0.844;2023-07-13T13:24:13;100654.57;;;23.53;48.06